MST,Max TemperatureF,Mean TemperatureF,Min TemperatureF,Max Dew PointF,MeanDew PointF,Min DewpointF,Max Humidity, Mean Humidity, Min Humidity, Max Sea Level PressureIn, Mean Sea Level PressureIn, Min Sea Level PressureIn, Max VisibilityMiles, Mean VisibilityMiles, Min VisibilityMiles, Max Wind SpeedMPH, Mean Wind SpeedMPH, Max Gust SpeedMPH,PrecipitationIn, CloudCover, Events, WindDirDegrees
2013-11-1,53,43,33,30,26,19,75,53,28,30.24,30.11,29.91,10,10,10,25,11,33,0.00,2,,343
2013-11-2,57,42,28,34,27,21,86,62,36,30.25,30.06,29.78,10,10,10,8,2,,0.00,0,,10
2013-11-3,66,50,33,32,27,21,81,52,19,29.84,29.68,29.58,10,10,9,26,8,37,0.02,2,Thunderstorm,24
2013-11-4,41,34,28,28,22,18,93,64,42,30.04,29.96,29.85,10,10,10,17,7,20,0.00,5,,140
2013-11-5,46,34,21,25,15,5,75,47,23,30.14,30.04,29.93,10,10,10,24,13,29,0.00,2,,356
2013-11-6,51,35,19,21,17,12,86,55,26,30.35,30.21,30.12,10,10,10,30,6,36,0.00,0,,30
2013-11-7,55,40,26,28,23,16,80,54,31,30.40,30.25,30.00,10,10,9,10,5,,0.00,0,,12
2013-11-8,64,46,28,28,25,21,80,48,24,30.05,29.90,29.81,10,10,10,20,7,32,0.00,1,,88
2013-11-9,51,42,32,36,29,25,80,63,49,30.28,30.18,30.06,10,10,10,10,7,,0.00,0,,356
2013-11-10,66,48,30,36,29,25,86,55,26,30.27,30.23,30.17,10,10,2,8,3,,0.00,0,,156
2013-11-11,55,42,30,32,27,21,86,66,38,30.66,30.38,30.19,10,10,10,20,5,24,0.00,2,,86
2013-11-12,53,38,24,36,29,23,93,75,47,30.65,30.53,30.38,10,8,0,8,5,,0.00,2,,95
2013-11-13,64,46,28,34,26,19,93,51,19,30.36,30.18,30.03,10,10,9,10,2,24,0.00,1,,26
2013-11-14,55,45,35,36,30,25,81,56,35,30.11,29.97,29.78,10,10,10,17,10,22,0.00,1,,72
2013-11-15,62,45,28,34,27,19,93,60,20,29.77,29.61,29.49,10,10,10,23,5,28,0.00,0,,278
2013-11-16,55,44,32,28,24,18,75,49,26,29.59,29.43,29.33,10,10,10,34,8,44,0.00,0,,352
2013-11-17,55,40,26,28,18,12,93,45,21,30.08,29.85,29.55,10,10,2,32,10,46,0.00,0,,299
2013-11-18,60,40,21,28,22,12,80,54,27,30.17,30.09,30.02,10,10,9,18,7,,0.00,0,,18
2013-11-19,46,35,24,30,24,14,80,58,37,30.01,29.84,29.75,10,10,10,10,3,,0.00,1,,43
2013-11-20,57,42,26,30,26,16,81,54,31,30.06,29.86,29.79,10,10,10,28,5,33,0.00,1,,91
2013-11-21,26,19,12,18,11,9,92,82,64,30.55,30.35,30.07,10,5,0,16,9,18,0.00,5,,88
2013-11-22,28,20,12,21,14,1,93,75,31,30.59,30.52,30.47,10,10,6,10,5,,0.06,0,,72
2013-11-23,33,27,21,23,18,12,86,71,51,30.60,30.50,30.31,10,10,10,12,5,,0.03,1,,113
2013-11-24,39,27,15,25,20,12,93,78,42,30.29,30.07,29.97,10,8,4,16,4,,0.02,1,,359
2013-11-25,41,36,30,28,23,16,87,62,41,30.32,30.21,30.03,10,10,10,21,8,28,0.02,4,,62
2013-11-26,50,39,28,28,24,19,86,64,37,30.38,30.32,30.25,10,10,10,14,4,,0.00,2,,108
2013-11-27,59,42,24,34,25,18,86,63,31,30.25,30.12,30.03,10,10,10,9,3,,0.00,0,,85
2013-11-28,46,36,26,30,25,19,86,68,46,30.25,30.19,30.14,10,10,10,8,3,,0.00,0,,14
2013-11-29,60,43,26,32,25,19,93,58,25,30.18,30.12,30.08,10,10,10,8,3,,0.00,0,,121
2013-11-30,57,42,28,28,23,19,80,55,27,30.20,30.16,30.12,10,10,10,10,3,,0.00,0,,55